Time;durP1;ratioP1;P1;durP2;ratioP2;P2;SDS_P1;SDS_P2;PMS_P1;PMS_P2;Temp;Humidity;BMP_temperature;BMP_pressure;BME280_temperature;BME280_humidity;BME280_pressure;Samples;Min_cycle;Max_cycle;Signal;HPM_P1;HPM_P2
2022/10/29 00:01:00;;;;;;;9.57;6.13;;;19.50;80.20;;;22.25;56.45;101979.81;4917119;29;20215;-62
2022/10/29 00:03:27;;;;;;;10.17;5.97;;;19.50;80.20;;;22.23;56.52;101973.84;4917008;29;20206;-60
2022/10/29 00:06:01;;;;;;;12.93;6.33;;;19.50;80.40;;;22.22;56.61;101972.22;4917148;29;20194;-58
2022/10/29 00:08:30;;;;;;;13.03;6.37;;;19.50;80.60;;;22.23;56.58;101976.53;4917431;29;20210;-60
2022/10/29 00:11:06;;;;;;;12.63;6.43;;;19.50;80.80;;;22.23;56.54;101979.22;4917176;29;20218;-62
2022/10/29 00:13:34;;;;;;;10.90;5.77;;;19.50;80.80;;;22.22;56.70;101974.91;4917060;29;20201;-59
2022/10/29 00:16:06;;;;;;;11.50;5.60;;;19.40;80.70;;;22.21;56.65;101986.66;4903289;29;20259;-61
2022/10/29 00:18:33;;;;;;;10.53;5.73;;;19.50;81.00;;;22.23;56.72;101995.31;4907096;29;20306;-61
2022/10/29 00:21:01;;;;;;;10.63;6.30;;;19.40;80.80;;;22.23;56.64;101995.31;4917825;29;20581;-61
2022/10/29 00:23:28;;;;;;;11.17;5.63;;;19.40;80.80;;;22.23;56.90;102006.03;4917837;29;20556;-60
2022/10/29 00:25:56;;;;;;;12.57;6.53;;;19.40;81.00;;;22.26;56.61;101994.88;4916969;29;20740;-60
2022/10/29 00:28:23;;;;;;;12.47;5.67;;;19.50;81.10;;;22.29;56.66;102002.50;4916411;29;20598;-59
2022/10/29 00:30:51;;;;;;;11.80;5.20;;;19.40;81.00;;;22.30;56.82;102006.81;4916555;29;20237;-61
2022/10/29 00:33:19;;;;;;;11.93;5.43;;;19.40;80.90;;;22.29;56.09;102007.88;4917482;29;20195;-58
2022/10/29 00:35:57;;;;;;;11.40;6.23;;;19.50;81.60;;;22.23;56.49;102011.41;4918445;29;20198;-57
2022/10/29 00:38:25;;;;;;;14.60;6.63;;;19.40;80.80;;;22.22;56.61;102009.78;4919378;29;20194;-63
2022/10/29 00:40:53;;;;;;;11.10;5.70;;;19.40;80.70;;;22.19;56.47;102010.22;4918958;29;20297;-63
2022/10/29 00:43:23;;;;;;;8.47;5.10;;;19.40;80.70;;;22.16;56.37;102008.78;4918904;29;20202;-62
2022/10/29 00:45:54;;;;;;;12.13;6.67;;;19.40;80.90;;;22.19;56.87;102010.22;4917695;29;20190;-61
2022/10/29 00:48:28;;;;;;;9.70;5.40;;;19.40;81.20;;;22.20;56.59;102011.88;4918190;29;20187;-61
2022/10/29 00:50:57;;;;;;;9.83;5.50;;;19.40;81.20;;;22.22;56.65;102015.97;4918183;29;20230;-62
2022/10/29 00:53:29;;;;;;;10.00;5.60;;;19.40;81.20;;;22.24;56.57;102018.44;4917841;29;20539;-62
2022/10/29 00:55:57;;;;;;;12.23;6.40;;;19.40;81.20;;;22.23;56.56;102028.34;4917734;29;20245;-61
2022/10/29 00:58:25;;;;;;;10.10;5.97;;;19.40;81.10;;;22.20;56.99;102023.41;4917699;29;20195;-57
2022/10/29 01:00:52;;;;;;;13.87;5.97;;;19.40;81.10;;;22.20;56.57;102017.25;4898433;29;20234;-60
2022/10/29 01:03:19;;;;;;;8.93;5.17;;;19.40;81.00;;;22.19;56.72;102012.91;4899197;29;20361;-61
2022/10/29 01:05:50;;;;;;;12.60;6.33;;;19.40;81.00;;;22.21;56.41;102008.13;4898756;29;20199;-61
2022/10/29 01:08:18;;;;;;;18.23;6.60;;;19.40;81.20;;;22.20;56.70;102007.31;4898471;29;20310;-61
2022/10/29 01:11:02;;;;;;;11.83;6.43;;;19.40;81.10;;;22.16;56.95;102016.00;4898176;29;20643;-62
2022/10/29 01:13:58;;;;;;;11.63;5.67;;;19.40;81.10;;;22.12;56.82;102028.22;4899075;29;20571;-62
2022/10/29 01:16:36;;;;;;;12.70;5.60;;;19.40;81.20;;;22.17;56.88;102031.09;4914736;29;20235;-60
2022/10/29 01:19:13;;;;;;;12.20;5.80;;;19.40;81.20;;;22.15;56.75;102031.31;4917885;29;20190;-61
2022/10/29 01:21:45;;;;;;;10.47;4.93;;;19.40;81.20;;;22.16;56.56;102034.78;4917756;29;20265;-61
2022/10/29 01:25:01;;;;;;;12.03;5.90;;;19.30;81.10;;;22.09;56.76;102036.72;4917394;29;20201;-61
2022/10/29 01:28:00;;;;;;;9.80;5.60;;;19.30;81.10;;;22.08;56.81;102033.19;4917742;29;20269;-60
2022/10/29 01:31:03;;;;;;;12.77;5.77;;;19.30;81.20;;;22.06;56.94;102029.91;4919862;29;20218;-61
2022/10/29 01:33:43;;;;;;;14.57;6.07;;;19.30;81.30;;;22.10;57.16;102033.00;4920205;29;20198;-61
2022/10/29 01:36:24;;;;;;;14.57;5.97;;;19.30;81.30;;;22.09;56.88;102028.66;4920509;29;20214;-61
2022/10/29 01:39:01;;;;;;;12.50;6.03;;;19.30;81.50;;;22.07;56.60;102030.75;4921027;29;20529;-61
2022/10/29 01:41:40;;;;;;;11.63;6.53;;;19.20;81.30;;;22.05;56.94;102035.50;4919713;29;20676;-61
2022/10/29 01:44:19;;;;;;;12.17;6.47;;;19.30;81.60;;;22.07;57.07;102030.75;4920256;29;20194;-61
2022/10/29 01:46:56;;;;;;;12.93;6.13;;;19.20;81.70;;;22.11;57.28;102023.91;4919873;29;20187;-60
2022/10/29 01:49:33;;;;;;;9.63;5.43;;;19.30;81.90;;;22.12;56.82;102028.22;4919866;29;20655;-61
2022/10/29 01:52:03;;;;;;;15.60;6.60;;;19.30;81.90;;;22.15;57.36;102025.13;4919014;29;20218;-60
2022/10/29 01:54:30;;;;;;;12.07;5.20;;;19.30;81.80;;;22.17;57.08;102017.66;4920372;29;20675;-59
2022/10/29 01:56:59;;;;;;;11.57;4.97;;;19.30;81.70;;;22.19;56.88;102015.59;4920262;29;20255;-60
2022/10/29 01:59:31;;;;;;;16.03;6.00;;;19.30;81.70;;;22.15;56.57;102030.50;4920072;29;20201;-62
2022/10/29 02:02:29;;;;;;;15.23;6.37;;;19.30;81.60;;;22.09;56.93;102015.25;4919497;29;20703;-61
2022/10/29 02:05:14;;;;;;;7.63;4.83;;;19.30;81.70;;;22.06;57.44;102005.78;4919680;29;20183;-59
2022/10/29 02:07:51;;;;;;;12.63;5.40;;;19.30;81.80;;;22.06;57.10;102004.97;4911528;29;20211;-61
2022/10/29 02:10:31;;;;;;;9.83;5.10;;;19.30;81.60;;;22.02;56.87;101999.22;4900772;29;20660;-60
2022/10/29 02:12:59;;;;;;;10.00;5.13;;;19.30;81.60;;;22.01;57.26;101980.69;4919143;29;20562;-60
2022/10/29 02:15:34;;;;;;;14.90;4.80;;;19.20;81.50;;;22.01;57.26;101996.75;4919400;29;20318;-60
2022/10/29 02:18:05;;;;;;;13.30;5.37;;;19.20;81.60;;;21.96;57.26;101993.91;4920348;29;20202;-60
2022/10/29 02:20:34;;;;;;;14.53;5.57;;;19.20;81.50;;;21.92;57.53;101998.88;4919483;29;20202;-61
2022/10/29 02:23:01;;;;;;;13.70;5.20;;;19.20;81.50;;;21.88;57.49;101986.97;4919036;29;20195;-59
2022/10/29 02:25:28;;;;;;;17.03;6.30;;;19.20;81.60;;;21.86;57.75;101989.03;4918796;29;20195;-59
2022/10/29 02:27:55;;;;;;;14.70;5.70;;;19.10;81.70;;;21.84;57.10;101995.63;4919860;29;20187;-61
2022/10/29 02:30:23;;;;;;;9.77;5.07;;;19.10;81.60;;;21.80;57.50;101989.06;4919409;29;20754;-60
2022/10/29 02:32:50;;;;;;;17.13;6.23;;;19.10;81.60;;;21.75;57.22;101992.38;4919663;29;20194;-60
2022/10/29 02:35:18;;;;;;;14.53;6.00;;;19.10;81.70;;;21.72;57.97;101989.31;4920254;29;20210;-60
2022/10/29 02:37:45;;;;;;;13.40;5.33;;;19.10;81.80;;;21.69;58.17;101992.44;4919663;29;20202;-59
2022/10/29 02:40:13;;;;;;;11.40;6.03;;;19.00;82.10;;;21.68;58.35;102002.31;4919332;29;20187;-60
2022/10/29 02:42:40;;;;;;;11.93;5.87;;;19.00;82.20;;;21.65;58.07;101991.22;4919568;29;20584;-62
2022/10/29 02:45:08;;;;;;;16.00;6.00;;;19.00;82.00;;;21.58;58.27;101989.38;4919035;29;20190;-60
2022/10/29 02:47:35;;;;;;;13.53;5.87;;;18.90;81.90;;;21.52;57.79;102002.84;4919379;29;20191;-60
2022/10/29 02:50:03;;;;;;;12.77;6.13;;;18.90;81.90;;;21.43;58.22;101999.59;4919601;29;20210;-60
2022/10/29 02:52:31;;;;;;;15.27;7.07;;;18.90;82.30;;;21.32;58.78;101997.59;4918027;29;20274;-61
2022/10/29 02:54:58;;;;;;;18.63;7.57;;;18.80;82.60;;;21.20;59.59;101988.59;4919569;29;20198;-61
2022/10/29 02:57:25;;;;;;;16.50;6.87;;;18.70;82.90;;;21.07;59.44;101988.66;4919115;29;20235;-61
2022/10/29 02:59:52;;;;;;;16.20;6.90;;;18.60;83.90;;;20.98;60.24;101975.69;4919836;29;20242;-61
2022/10/29 03:02:19;;;;;;;14.33;7.10;;;18.50;83.40;;;20.88;60.52;101985.00;4918483;29;20226;-60
2022/10/29 03:04:46;;;;;;;15.03;7.50;;;18.40;83.80;;;20.79;60.79;101977.41;4920148;29;20194;-61
2022/10/29 03:07:13;;;;;;;14.90;6.50;;;18.40;84.00;;;20.74;60.17;101985.25;4920609;29;20229;-61
2022/10/29 03:09:42;;;;;;;17.77;7.23;;;18.30;84.00;;;20.70;60.81;101982.19;4921667;29;20210;-61
2022/10/29 03:12:09;;;;;;;13.63;6.57;;;18.20;84.10;;;20.71;60.32;101977.63;4921155;29;20218;-61
2022/10/29 03:14:36;;;;;;;14.63;7.03;;;18.20;84.70;;;20.71;60.52;101972.28;4919677;29;20681;-61
2022/10/29 03:17:02;;;;;;;15.80;6.50;;;18.10;84.80;;;20.73;60.76;101959.50;4918336;29;20198;-60
2022/10/29 03:19:29;;;;;;;15.50;6.37;;;18.10;84.70;;;20.72;60.30;101953.34;4918653;29;20194;-61
2022/10/29 03:21:56;;;;;;;14.80;6.70;;;18.10;84.70;;;20.74;60.58;101955.81;4917023;29;20282;-58
2022/10/29 03:24:23;;;;;;;14.97;7.07;;;18.10;84.70;;;20.71;60.36;101948.19;4918924;29;20198;-62
2022/10/29 03:26:52;;;;;;;12.70;6.60;;;18.10;84.60;;;20.68;59.88;101945.97;4917634;29;20213;-61
2022/10/29 03:29:19;;;;;;;13.87;6.37;;;18.00;84.50;;;20.67;60.46;101947.81;4919517;29;20233;-60
2022/10/29 03:31:46;;;;;;;15.23;7.00;;;18.00;84.60;;;20.67;60.53;101946.97;4918163;29;20262;-61
2022/10/29 03:34:13;;;;;;;12.90;7.60;;;18.00;84.60;;;20.61;60.72;101955.88;4919063;29;20226;-61
2022/10/29 03:36:40;;;;;;;17.40;7.10;;;18.00;84.80;;;20.54;60.77;101957.75;4918951;29;20198;-62
2022/10/29 03:39:07;;;;;;;13.33;7.23;;;18.00;84.80;;;20.49;60.77;101965.56;4919085;29;20209;-61
2022/10/29 03:41:34;;;;;;;14.40;7.13;;;17.90;84.90;;;20.41;61.08;101955.91;4918503;29;20222;-61
2022/10/29 03:44:02;;;;;;;11.03;7.10;;;17.90;85.00;;;20.36;61.09;101969.06;4918901;29;20683;-61
2022/10/29 03:46:29;;;;;;;12.83;6.67;;;17.80;85.10;;;20.34;60.91;101964.97;4918322;29;20198;-63
2022/10/29 03:48:57;;;;;;;13.77;6.87;;;17.80;85.30;;;20.32;61.24;101967.88;4917073;29;20592;-61
2022/10/29 03:51:24;;;;;;;15.27;7.00;;;17.70;85.40;;;20.28;61.56;101960.47;4917945;29;20238;-62
2022/10/29 03:53:51;;;;;;;15.27;7.37;;;17.70;85.50;;;20.22;61.47;101957.59;4917539;29;20207;-60
2022/10/29 03:56:18;;;;;;;11.90;6.70;;;17.70;85.70;;;20.17;61.43;101960.03;4917665;29;20202;-62
2022/10/29 03:58:45;;;;;;;14.50;6.33;;;17.60;85.70;;;20.16;61.34;101957.53;4918306;29;20254;-61
2022/10/29 04:01:13;;;;;;;11.07;5.67;;;17.60;85.70;;;20.16;61.56;101969.06;4917424;29;20211;-62
2022/10/29 04:03:42;;;;;;;17.63;8.07;;;17.60;86.00;;;20.18;61.26;101956.31;4917359;29;20226;-62
2022/10/29 04:06:13;;;;;;;8.97;6.37;;;17.60;86.20;;;20.21;61.46;101976.47;4917666;29;20203;-60
2022/10/29 04:08:40;;;;;;;14.07;6.63;;;17.50;86.00;;;20.23;61.45;101969.91;4917869;29;20191;-61
2022/10/29 04:11:11;;;;;;;8.93;6.17;;;17.60;86.40;;;20.24;61.23;101982.25;4917013;29;20605;-60
2022/10/29 04:13:38;;;;;;;13.87;6.63;;;17.60;86.20;;;20.27;61.02;101982.88;4917584;29;20620;-62
2022/10/29 04:16:06;;;;;;;13.27;7.33;;;17.60;86.10;;;20.23;61.15;101996.66;4917455;29;20198;-61
2022/10/29 04:18:34;;;;;;;10.03;6.77;;;17.50;86.70;;;20.21;61.29;102006.72;4917384;29;20250;-60
2022/10/29 04:21:02;;;;;;;12.03;7.03;;;17.60;85.90;;;20.16;61.14;101998.47;4917222;29;20214;-62
2022/10/29 04:23:50;;;;;;;13.90;7.20;;;17.60;85.90;;;20.10;61.62;102002.00;4916726;29;20230;-61
2022/10/29 04:26:37;;;;;;;13.77;6.70;;;17.50;85.90;;;20.03;61.27;102000.34;4916753;29;20245;-64
2022/10/29 04:29:24;;;;;;;11.43;6.40;;;17.50;85.90;;;20.02;61.88;101994.16;4916406;29;20229;-61
2022/10/29 04:31:51;;;;;;;14.00;7.63;;;17.50;86.20;;;20.03;61.29;101985.13;4916268;29;20226;-61
2022/10/29 04:34:19;;;;;;;15.23;6.70;;;17.50;86.30;;;20.05;61.30;101988.41;4917312;29;20254;-62
2022/10/29 04:36:46;;;;;;;15.27;7.37;;;17.40;86.10;;;20.01;61.70;101987.19;4917029;29;20195;-61
2022/10/29 04:39:13;;;;;;;18.20;8.10;;;17.40;86.10;;;19.94;61.88;101994.38;4917306;29;20659;-61
2022/10/29 04:41:47;;;;;;;12.40;6.87;;;17.40;85.90;;;19.89;61.53;101994.16;4917199;29;20230;-61
2022/10/29 04:44:14;;;;;;;14.40;6.57;;;17.40;86.40;;;19.91;61.90;101984.09;4916973;29;20207;-62
2022/10/29 04:46:41;;;;;;;10.63;7.20;;;17.30;86.60;;;19.94;62.13;101981.03;4917570;29;20199;-61
2022/10/29 04:49:08;;;;;;;12.33;7.17;;;17.30;86.60;;;19.98;61.49;101976.06;4908046;29;20206;-61
2022/10/29 04:51:36;;;;;;;11.80;6.77;;;17.30;86.50;;;19.98;61.20;101982.25;4898102;29;20290;-59
2022/10/29 04:54:04;;;;;;;12.07;6.50;;;17.30;86.20;;;19.97;61.55;101985.94;4915752;29;20527;-62
2022/10/29 04:56:31;;;;;;;16.37;7.57;;;17.30;86.10;;;19.97;61.49;101991.28;4917024;29;20272;-62
2022/10/29 04:58:58;;;;;;;15.43;7.50;;;17.30;86.20;;;19.98;61.64;101982.25;4917249;29;20296;-61
2022/10/29 05:01:25;;;;;;;11.43;7.30;;;17.30;86.50;;;19.97;61.65;101985.09;4920475;29;20234;-62
2022/10/29 05:03:52;;;;;;;13.33;6.97;;;17.30;86.10;;;19.97;61.11;101980.59;4920135;29;20307;-62
2022/10/29 05:06:25;;;;;;;14.10;8.10;;;17.30;86.10;;;19.95;61.12;101979.16;4920592;29;20648;-61
2022/10/29 05:08:53;;;;;;;16.23;8.83;;;17.30;86.00;;;19.90;61.52;101974.41;4920557;29;20230;-62
2022/10/29 05:11:21;;;;;;;14.03;7.80;;;17.30;86.00;;;19.87;61.09;101972.16;4920312;29;20223;-61
2022/10/29 05:13:47;;;;;;;12.10;8.10;;;17.30;85.90;;;19.84;60.99;101969.06;4921033;29;20258;-61
2022/10/29 05:16:14;;;;;;;12.67;7.40;;;17.20;85.80;;;19.79;61.22;101983.06;4921091;29;20304;-60
2022/10/29 05:18:41;;;;;;;11.17;6.80;;;17.20;85.90;;;19.78;61.36;101970.72;4921080;29;20266;-62
2022/10/29 05:21:08;;;;;;;12.50;8.13;;;17.20;86.10;;;19.78;61.41;101976.06;4920465;29;20302;-61
2022/10/29 05:23:35;;;;;;;17.57;8.93;;;17.10;85.90;;;19.76;61.65;101972.78;4920885;29;20205;-62
2022/10/29 05:26:04;;;;;;;10.83;7.30;;;17.10;86.10;;;19.72;61.62;101976.06;4920160;29;20723;-61
2022/10/29 05:28:31;;;;;;;12.43;8.47;;;17.10;86.00;;;19.69;61.67;101971.94;4920631;29;20194;-60
2022/10/29 05:31:01;;;;;;;12.37;7.87;;;17.10;86.20;;;19.70;61.76;101986.97;4920374;29;20226;-61
2022/10/29 05:33:28;;;;;;;11.87;7.87;;;17.00;86.20;;;19.70;61.32;101986.97;4920099;29;20238;-61
2022/10/29 05:35:55;;;;;;;13.87;7.67;;;17.00;86.20;;;19.72;61.41;101986.75;4921031;29;20202;-61
2022/10/29 05:38:22;;;;;;;21.93;9.20;;;17.00;86.40;;;19.70;61.67;101994.97;4921691;29;20194;-61
2022/10/29 05:40:49;;;;;;;15.87;9.17;;;17.00;86.40;;;19.60;61.69;102005.22;4920398;29;20219;-59
2022/10/29 05:43:17;;;;;;;15.27;7.23;;;17.00;86.30;;;19.56;61.51;102001.31;4920840;29;20766;-62
2022/10/29 05:45:44;;;;;;;14.43;8.53;;;17.00;86.10;;;19.54;61.74;102004.16;4920122;29;20278;-61
2022/10/29 05:48:12;;;;;;;14.67;7.90;;;17.00;86.20;;;19.55;61.80;102005.00;4920064;29;20202;-62
2022/10/29 05:50:39;;;;;;;13.30;8.30;;;16.90;86.20;;;19.53;61.38;102004.38;4919320;29;20296;-61
2022/10/29 05:53:10;;;;;;;12.17;9.60;;;16.90;86.10;;;19.47;61.54;102003.34;4919435;29;20195;-62
2022/10/29 05:55:38;;;;;;;16.67;9.97;;;16.90;86.20;;;19.40;61.73;102004.34;4919496;29;20183;-62
2022/10/29 05:58:09;;;;;;;15.80;9.00;;;16.90;86.90;;;19.32;61.94;102008.00;4919812;29;20198;-62
2022/10/29 06:00:41;;;;;;;13.80;8.67;;;16.80;86.20;;;19.26;61.83;102007.97;4919187;29;20535;-59
2022/10/29 06:03:13;;;;;;;13.90;8.50;;;16.70;86.20;;;19.20;62.22;102008.78;4919174;29;20246;-60
2022/10/29 06:05:40;;;;;;;15.23;9.07;;;16.70;86.50;;;19.14;62.52;101993.53;4918247;29;20279;-60
2022/10/29 06:08:07;;;;;;;14.97;9.10;;;16.60;86.70;;;19.11;62.28;101983.28;4919485;29;20202;-62
2022/10/29 06:10:34;;;;;;;14.83;9.60;;;16.60;86.60;;;19.09;62.19;101985.34;4918572;29;20222;-61
2022/10/29 06:13:01;;;;;;;17.00;10.30;;;16.50;86.70;;;19.03;62.54;101981.59;4918588;29;20199;-61
2022/10/29 06:15:28;;;;;;;17.77;10.10;;;16.50;87.00;;;18.99;62.88;101985.69;4919348;29;20202;-60
2022/10/29 06:17:57;;;;;;;14.57;9.23;;;16.40;87.00;;;18.95;62.82;101984.44;4919030;29;20198;-62
2022/10/29 06:20:24;;;;;;;13.77;9.60;;;16.40;87.10;;;18.86;63.22;101994.47;4919007;29;20723;-63
2022/10/29 06:22:58;;;;;;;10.50;8.90;;;16.30;87.30;;;18.80;63.03;101994.44;4919179;29;20670;-61
2022/10/29 06:25:26;;;;;;;14.93;9.83;;;16.30;87.30;;;18.76;63.09;101994.00;4918258;29;20675;-60
2022/10/29 06:27:59;;;;;;;14.13;9.50;;;16.30;87.40;;;18.69;63.32;101990.47;4919366;29;20183;-61
2022/10/29 06:30:27;;;;;;;16.40;10.70;;;16.20;87.60;;;18.64;63.38;101982.22;4918906;29;20238;-60
2022/10/29 06:32:54;;;;;;;16.83;11.37;;;16.20;87.70;;;18.59;63.61;101990.00;4919104;29;20198;-60
2022/10/29 06:35:23;;;;;;;19.17;10.33;;;16.10;87.90;;;18.58;64.11;101983.03;4898948;29;20224;-60
2022/10/29 06:37:51;;;;;;;18.10;10.27;;;16.10;88.10;;;18.56;63.64;101982.41;4899918;29;20656;-64
2022/10/29 06:40:18;;;;;;;13.47;9.97;;;16.10;88.20;;;18.56;63.81;101989.56;4899872;29;20195;-60
2022/10/29 06:42:45;;;;;;;12.80;9.37;;;16.00;88.30;;;18.52;64.19;101989.13;4917773;29;20230;-61
2022/10/29 06:45:12;;;;;;;18.53;9.63;;;16.00;88.60;;;18.51;64.13;101992.81;4919114;29;20198;-59
2022/10/29 06:47:41;;;;;;;17.57;10.43;;;16.00;88.70;;;18.51;64.02;101992.81;4918603;29;20254;-61
2022/10/29 06:50:10;;;;;;;14.83;8.93;;;16.00;88.90;;;18.53;64.06;101995.28;4918492;29;20215;-58
2022/10/29 06:52:39;;;;;;;20.17;11.13;;;16.00;88.90;;;18.53;63.61;101996.13;4918223;29;20269;-61
2022/10/29 06:55:07;;;;;;;16.90;9.57;;;16.00;88.90;;;18.56;63.97;101995.72;4918339;29;20607;-63
2022/10/29 06:57:35;;;;;;;9.37;7.57;;;16.00;88.90;;;18.59;63.83;102000.66;4918047;29;20206;-62
2022/10/29 07:00:04;;;;;;;12.17;8.30;;;16.00;88.90;;;18.66;63.75;101998.84;4918014;29;20553;-61
2022/10/29 07:02:34;;;;;;;13.63;8.53;;;16.00;89.30;;;18.74;63.64;101993.38;4917705;29;20313;-61
2022/10/29 07:05:02;;;;;;;15.70;9.13;;;16.00;89.20;;;18.82;63.56;101993.22;4918327;29;20694;-61
2022/10/29 07:07:29;;;;;;;10.77;8.57;;;16.10;89.10;;;18.88;63.26;101989.75;4918759;29;20210;-61
2022/10/29 07:09:57;;;;;;;18.57;9.77;;;16.10;89.00;;;18.94;62.99;101994.28;4911231;29;20267;-63
2022/10/29 07:12:24;;;;;;;11.93;7.90;;;16.20;88.80;;;19.00;62.88;101998.00;4913973;29;20214;-62
2022/10/29 07:14:51;;;;;;;14.20;8.17;;;16.20;88.80;;;19.09;62.81;102012.03;4917252;29;20213;-60
2022/10/29 07:17:18;;;;;;;89.67;46.33;;;16.30;89.60;;;19.18;62.91;102010.81;4916580;29;20206;-63
2022/10/29 07:19:45;;;;;;;23.83;14.17;;;16.30;88.90;;;19.25;62.32;102009.81;4915962;29;20266;-62
2022/10/29 07:22:12;;;;;;;15.17;9.23;;;16.40;88.60;;;19.33;62.45;102011.47;4917107;29;20230;-62
2022/10/29 07:24:39;;;;;;;13.27;8.67;;;16.40;88.30;;;19.39;61.97;102013.38;4917232;29;20191;-63
2022/10/29 07:27:08;;;;;;;14.43;8.13;;;16.50;88.20;;;19.47;61.95;102023.88;4917584;29;20194;-60
2022/10/29 07:29:35;;;;;;;19.70;8.90;;;16.60;88.10;;;19.52;61.78;102019.59;4917780;29;20699;-61
2022/10/29 07:32:02;;;;;;;12.67;7.80;;;16.60;87.70;;;19.57;61.69;102008.28;4917498;29;20694;-63
2022/10/29 07:34:29;;;;;;;15.23;8.63;;;16.70;87.70;;;19.65;61.22;102008.13;4917669;29;20763;-62
2022/10/29 07:36:56;;;;;;;15.37;8.13;;;16.70;87.40;;;19.70;61.17;101994.97;4917107;29;20214;-63
2022/10/29 07:39:23;;;;;;;13.53;8.47;;;16.80;87.20;;;19.74;60.89;101990.84;4918139;29;20202;-60
2022/10/29 07:41:51;;;;;;;14.40;8.73;;;16.80;86.90;;;19.76;61.04;101986.13;4917189;29;20218;-60
2022/10/29 07:44:23;;;;;;;15.03;9.23;;;16.90;86.70;;;19.75;60.87;101992.53;4916955;29;20202;-62
2022/10/29 07:46:57;;;;;;;17.80;9.90;;;16.90;86.20;;;19.69;60.28;102004.00;4916807;29;20194;-61
2022/10/29 07:49:24;;;;;;;13.63;9.97;;;16.90;85.90;;;19.71;60.83;101995.78;4917106;29;20194;-62
2022/10/29 07:51:51;;;;;;;15.00;10.37;;;16.90;85.70;;;19.71;60.66;101996.59;4916277;29;20227;-61
2022/10/29 07:54:18;;;;;;;22.23;14.27;;;16.90;85.80;;;19.81;60.31;101991.69;4917806;29;20198;-63
2022/10/29 07:56:45;;;;;;;15.83;9.97;;;17.00;85.90;;;19.92;60.18;101988.41;4917284;29;20210;-60
2022/10/29 07:59:14;;;;;;;18.80;10.83;;;17.00;86.00;;;20.04;60.03;101993.97;4917084;29;20190;-60
2022/10/29 08:01:42;;;;;;;13.47;11.03;;;17.10;86.20;;;20.17;60.07;101992.13;4916091;29;20270;-61
2022/10/29 08:04:10;;;;;;;15.27;9.53;;;17.10;85.90;;;20.27;59.75;102001.59;4917205;29;20233;-60
2022/10/29 08:06:37;;;;;;;15.37;10.17;;;17.20;85.60;;;20.28;59.34;101997.91;4918019;29;20198;-60
2022/10/29 08:09:04;;;;;;;14.83;9.00;;;17.30;84.90;;;20.34;59.62;102003.25;4917235;29;20691;-62
2022/10/29 08:11:32;;;;;;;16.23;10.57;;;17.40;85.10;;;20.47;59.40;102002.38;4920141;29;20337;-60
2022/10/29 08:13:59;;;;;;;12.87;8.23;;;17.40;85.10;;;20.57;58.96;102013.47;4916668;29;20250;-61
2022/10/29 08:16:26;;;;;;;18.00;10.77;;;17.50;84.80;;;20.64;58.86;102007.09;4916966;29;20208;-62
2022/10/29 08:18:55;;;;;;;16.30;9.43;;;17.60;84.70;;;20.67;58.38;102013.88;4917642;29;20246;-62
2022/10/29 08:21:23;;;;;;;13.03;8.87;;;17.70;84.10;;;20.69;58.42;102017.16;4915961;29;20245;-61
2022/10/29 08:23:55;;;;;;;12.73;8.03;;;17.70;83.80;;;20.75;58.20;102025.16;4917123;29;20202;-63
2022/10/29 08:26:22;;;;;;;18.60;8.93;;;17.80;83.90;;;20.84;57.89;102026.63;4916589;29;20584;-63
2022/10/29 08:28:49;;;;;;;12.30;8.00;;;17.80;83.80;;;20.91;58.28;102026.59;4917260;29;20198;-61
2022/10/29 08:31:16;;;;;;;9.00;7.80;;;17.90;83.70;;;20.97;58.19;102027.59;4917218;29;20285;-62
2022/10/29 08:33:43;;;;;;;12.97;7.77;;;17.90;83.60;;;21.03;58.25;102030.25;4916885;29;20199;-62
2022/10/29 08:36:11;;;;;;;12.67;7.63;;;18.00;83.70;;;21.07;57.68;102036.84;4920175;29;20257;-62
2022/10/29 08:38:38;;;;;;;11.47;8.77;;;18.00;83.40;;;;;;4920939;29;20573;-62
2022/10/29 08:41:33;;;;;;;13.30;8.20;;;18.10;83.40;;;21.07;57.43;102025.31;4919629;29;20230;-61
2022/10/29 08:44:32;;;;;;;14.40;8.00;;;18.10;83.00;;;21.06;57.80;102029.84;4919931;29;20217;-61
2022/10/29 08:47:08;;;;;;;11.70;7.27;;;18.20;83.10;;;21.12;57.77;102012.94;4902024;29;20222;-61
2022/10/29 08:49:42;;;;;;;13.27;9.30;;;18.20;83.00;;;21.17;57.83;102013.13;4901518;29;20183;-60
2022/10/29 08:52:19;;;;;;;9.83;8.17;;;18.20;83.00;;;21.20;57.25;101993.13;4901273;29;20231;-61
2022/10/29 08:54:56;;;;;;;14.13;9.37;;;18.30;82.90;;;21.19;57.16;101994.97;4919672;29;20544;-60
2022/10/29 08:57:26;;;;;;;15.43;9.07;;;18.30;82.70;;;21.14;57.63;101991.28;4920329;29;20210;-61
2022/10/29 09:00:04;;;;;;;15.00;9.33;;;18.30;82.60;;;21.06;57.83;101992.34;4918643;29;20210;-63
2022/10/29 09:02:32;;;;;;;14.40;9.37;;;18.30;82.80;;;21.04;57.75;101983.69;4916996;29;20245;-61
2022/10/29 09:05:00;;;;;;;14.20;10.73;;;18.30;82.90;;;21.04;58.36;101999.75;4917978;29;20206;-63
2022/10/29 09:07:59;;;;;;;16.70;10.43;;;18.30;83.00;;;21.06;57.86;102011.09;4917879;29;20194;-61
2022/10/29 09:10:40;;;;;;;17.20;10.97;;;18.30;83.30;;;21.27;58.41;102000.09;4919707;29;20199;-62
2022/10/29 09:13:31;;;;;;;10.93;8.23;;;18.40;83.70;;;21.45;57.95;101994.03;4917362;29;20232;-61
2022/10/29 09:16:28;;;;;;;12.03;8.67;;;18.50;83.60;;;21.46;57.68;101998.34;4920007;29;20199;-61
2022/10/29 09:19:18;;;;;;;10.33;7.20;;;18.60;82.90;;;21.50;57.14;102003.06;4919161;29;20199;-62
2022/10/29 09:21:55;;;;;;;12.33;8.00;;;18.60;82.70;;;21.63;57.21;101999.50;4918313;29;20215;-62
2022/10/29 09:24:36;;;;;;;10.53;8.03;;;18.70;82.80;;;21.87;56.99;101997.91;4915070;29;20531;-61
2022/10/29 09:27:14;;;;;;;12.57;8.37;;;18.80;83.80;;;22.07;56.07;101993.19;4918600;29;20614;-63
2022/10/29 09:30:04;;;;;;;12.23;8.10;;;18.90;82.50;;;22.17;56.27;101980.13;4919318;29;20186;-62
2022/10/29 09:32:37;;;;;;;11.83;8.00;;;19.00;82.00;;;22.26;55.93;101978.78;4919530;29;20222;-60
2022/10/29 09:35:14;;;;;;;11.53;7.67;;;19.20;81.70;;;22.25;55.80;101977.13;4918181;29;20604;-61
2022/10/29 09:37:49;;;;;;;15.97;8.90;;;19.20;81.30;;;22.25;55.56;101971.75;4919829;29;20203;-61
2022/10/29 09:40:31;;;;;;;13.83;9.10;;;19.30;81.30;;;22.25;55.67;101966.41;4919449;29;20352;-62
2022/10/29 09:43:07;;;;;;;17.00;9.50;;;19.30;81.20;;;22.27;55.83;101960.84;4918617;29;20293;-59
2022/10/29 09:45:45;;;;;;;14.03;8.80;;;19.40;81.20;;;22.30;55.90;101966.56;4918864;29;20198;-59
2022/10/29 09:48:22;;;;;;;18.60;9.73;;;19.40;81.20;;;22.35;55.87;101960.53;4918965;29;20202;-61
2022/10/29 09:51:00;;;;;;;19.27;10.10;;;19.40;81.20;;;22.35;55.85;101969.41;4920824;29;20241;-63
2022/10/29 09:53:28;;;;;;;14.50;10.17;;;19.40;81.20;;;22.42;56.01;101964.78;4917953;29;20278;-62
2022/10/29 09:55:56;;;;;;;15.30;9.63;;;19.50;81.40;;;22.55;55.91;101970.03;4918094;29;20270;-62
2022/10/29 09:58:26;;;;;;;11.73;8.53;;;19.50;81.40;;;22.63;55.81;101964.38;4918625;29;20206;-61
2022/10/29 10:00:56;;;;;;;13.93;9.30;;;19.60;81.40;;;22.72;55.53;101963.06;4919243;29;20210;-62
2022/10/29 10:03:29;;;;;;;18.23;10.17;;;19.70;81.20;;;22.83;55.35;101961.47;4919908;29;20206;-62
2022/10/29 10:06:00;;;;;;;16.87;9.50;;;19.70;81.00;;;22.93;55.11;101969.81;4919337;29;20187;-61
2022/10/29 10:08:27;;;;;;;15.17;9.90;;;19.90;80.90;;;23.05;54.82;101968.03;4919280;29;20498;-62
2022/10/29 10:10:59;;;;;;;14.50;10.27;;;20.00;80.40;;;23.12;54.33;101965.25;4917266;29;20304;-61
2022/10/29 10:13:30;;;;;;;16.53;9.03;;;20.10;79.80;;;23.18;54.44;101970.50;4917088;29;20249;-62
2022/10/29 10:15:59;;;;;;;14.53;8.90;;;20.20;79.80;;;23.30;54.17;101970.56;4917561;29;20190;-62
2022/10/29 10:18:39;;;;;;;13.93;10.43;;;20.20;79.70;;;23.46;53.96;101972.66;4918222;29;20198;-61
2022/10/29 10:21:10;;;;;;;13.40;9.43;;;20.30;79.60;;;23.52;53.40;101972.56;4916656;29;20259;-62